Holiday — WDF4494 — position and weather

sailwx.info

Track history (hours):
 
Tides and Currents Weather Stations Pressure Air Temp Water Temp Dewpoint Dewpoint Depression Visibility Wind Speed Wind Dir Waves Ship Positions

Holiday

Owner: VOAKLANDER, TIM J, CARDIFF, CA. More information available from US FCC via Universal Licensing System and Coast Guard Vessel Documentation Center.

Last reported at 2017-Sep-18 13:04 UTC. Time now 2017-Sep-21 05:27 UTC.
Position N 32°35' W 117°36'.

Length 24 m.

Type: Wing in ground effect craft. MMSI: 367452560.

Date/timePositionNaut miles runAvg speedWind from/ knotsBaromVisibWave heightAir tempDewpointWater temp
2017-Sep-18 13:04N 32°35' W 117°36'0 0.6
2017-Sep-18 12:58N 32°35' W 117°36'0 0.5
2017-Sep-18 12:29N 32°35' W 117°36'0 0.4
2017-Sep-18 11:59N 32°35' W 117°37'0 0.4
2017-Sep-18 11:29N 32°34' W 117°37'1 2.1
2017-Sep-18 11:00N 32°34' W 117°36'0 0.7
2017-Sep-18 10:30N 32°35' W 117°35'1 1.9
2017-Sep-18 10:00N 32°35' W 117°36'2 4.2
2017-Sep-18 09:30N 32°36' W 117°35'2 4.2
2017-Sep-18 09:00N 32°37' W 117°32'2 4.2
2017-Sep-18 08:30N 32°38' W 117°30'2 4.4
2017-Sep-18 08:00N 32°39' W 117°28'2 4.4
2017-Sep-18 07:30N 32°40' W 117°26'2 4.5
2017-Sep-18 07:00N 32°41' W 117°23'2 4.6
2017-Sep-18 06:30N 32°42' W 117°21'2 4.6
2017-Sep-18 06:00N 32°44' W 117°18'3 5.9
2017-Sep-18 05:30N 32°45' W 117°16'1 2.2
2017-Sep-18 04:55N 32°46' W 117°14'0 0.0
2017-Sep-18 04:25N 32°46' W 117°14'0 0.0
2017-Sep-18 04:01N 32°46' W 117°14'0 0.0
2017-Sep-18 03:26N 32°46' W 117°14'1 2.7
2017-Sep-18 03:00N 32°45' W 117°16'4 8.7
2017-Sep-18 02:30N 32°42' W 117°18'4 8.9
2017-Sep-18 02:01N 32°38' W 117°22'5 9.2
2017-Sep-18 01:31N 32°35' W 117°25'5 9.6
2017-Sep-18 01:00N 32°31' W 117°28'5 9.5
2017-Sep-18 00:30N 32°27' W 117°31'4 7.6
2017-Sep-18 00:00N 32°23' W 117°33'3 7.1
2017-Sep-17 23:30N 32°21' W 117°30'4 0.9
2017-Sep-17 18:57N 32°17' W 117°28'2 4.6
2017-Sep-17 18:27N 32°18' W 117°30'3 6.9
2017-Sep-17 18:00N 32°21' W 117°32'3 5.6
2017-Sep-17 17:29N 32°24' W 117°32'3 6.7
2017-Sep-17 17:00N 32°27' W 117°32'2 4.2
2017-Sep-17 16:25N 32°30' W 117°32'0 0.7
2017-Sep-17 16:00N 32°30' W 117°32'2 4.9
2017-Sep-17 15:30N 32°31' W 117°34'3 5.1
2017-Sep-17 15:00N 32°32' W 117°37'2 3.1
2017-Sep-17 14:30N 32°33' W 117°39'3 5.3
2017-Sep-17 14:00N 32°36' W 117°39'2 3.8
2017-Sep-17 13:30N 32°35' W 117°36'3 5.8
2017-Sep-17 13:00N 32°36' W 117°40'2 4.9
2017-Sep-17 12:30N 32°35' W 117°43'2 3.1
2017-Sep-17 12:00N 32°34' W 117°42'1 1.5
2017-Sep-17 11:30N 32°34' W 117°41'2 3.2
2017-Sep-17 11:00N 32°35' W 117°40'2 3.8
2017-Sep-17 10:30N 32°36' W 117°38'2 3.7
2017-Sep-17 10:00N 32°37' W 117°36'2 3.6
2017-Sep-17 09:30N 32°38' W 117°34'2 3.8
2017-Sep-17 09:00N 32°39' W 117°32'2 4.0
2017-Sep-17 08:30N 32°40' W 117°30'2 4.2
2017-Sep-17 08:00N 32°40' W 117°27'2 4.4
2017-Sep-17 07:30N 32°41' W 117°25'2 4.4
2017-Sep-17 07:00N 32°42' W 117°23'2 4.6
2017-Sep-17 06:30N 32°43' W 117°20'3 5.1
2017-Sep-17 06:00N 32°45' W 117°18'3 6.0
2017-Sep-17 05:30N 32°46' W 117°15'0 0.1
2017-Sep-17 03:45N 32°46' W 117°14'0 0.2
2017-Sep-17 03:29N 32°46' W 117°14'0 0.1
2017-Sep-17 02:59N 32°46' W 117°14'3 5.9
2017-Sep-17 02:31N 32°45' W 117°17'4 8.0
2017-Sep-17 02:01N 32°43' W 117°21'4 8.2
2017-Sep-17 01:30N 32°41' W 117°26'4 8.5
2017-Sep-17 01:00N 32°39' W 117°30'4 8.4
2017-Sep-17 00:30N 32°37' W 117°34'4 8.0
2017-Sep-17 00:01N 32°34' W 117°38'2 4.8
2017-Sep-16 23:30N 32°32' W 117°37'4 7.2
2017-Sep-16 23:00N 32°35' W 117°36'1 1.6
2017-Sep-16 22:30N 32°35' W 117°35'1 3.0
2017-Sep-16 22:00N 32°34' W 117°34'3 6.9
2017-Sep-16 21:30N 32°35' W 117°38'3 6.3
2017-Sep-16 21:00N 32°35' W 117°41'3 5.2
2017-Sep-16 20:30N 32°34' W 117°39'2 4.8
2017-Sep-16 20:00N 32°33' W 117°36'3 6.9
2017-Sep-16 19:30N 32°30' W 117°34'4 8.1
2017-Sep-16 19:00N 32°26' W 117°33'2 3.2
2017-Sep-16 18:30N 32°27' W 117°35'4 7.6
2017-Sep-16 18:00N 32°28' W 117°39'4 7.7
2017-Sep-16 17:30N 32°32' W 117°38'4 7.8
2017-Sep-16 17:00N 32°34' W 117°34'3 6.0
2017-Sep-16 16:30N 32°36' W 117°37'2 3.7
2017-Sep-16 16:00N 32°34' W 117°36'3 6.9
2017-Sep-16 15:30N 32°31' W 117°35'3 5.1
2017-Sep-16 15:00N 32°31' W 117°38'3 6.2
2017-Sep-16 14:30N 32°29' W 117°41'3 5.3
2017-Sep-16 14:00N 32°28' W 117°38'2 4.4
2017-Sep-16 13:30N 32°30' W 117°39'1 2.3
2017-Sep-16 13:00N 32°31' W 117°39'0 0.8
2017-Sep-16 12:29N 32°30' W 117°39'0 0.3
2017-Sep-16 12:01N 32°30' W 117°40'2 3.8
2017-Sep-16 11:31N 32°31' W 117°38'2 4.3
2017-Sep-16 11:00N 32°30' W 117°40'1 1.2
2017-Sep-16 10:30N 32°30' W 117°39'2 4.2
2017-Sep-16 10:00N 32°32' W 117°37'2 4.2
2017-Sep-16 09:30N 32°33' W 117°35'2 4.0
2017-Sep-16 09:01N 32°34' W 117°34'2 4.0
2017-Sep-16 08:30N 32°35' W 117°32'2 4.0
2017-Sep-16 08:00N 32°37' W 117°30'2 4.3
2017-Sep-16 07:30N 32°38' W 117°28'2 4.4
2017-Sep-16 07:00N 32°39' W 117°26'2 4.9
2017-Sep-16 06:30N 32°41' W 117°24'3 5.8
2017-Sep-16 06:01N 32°43' W 117°21'3 6.8
2017-Sep-16 05:31N 32°45' W 117°18'3 5.4
2017-Sep-16 04:56N 32°46' W 117°14'0 0.0
2017-Sep-16 04:12N 32°46' W 117°14'0 0.5
2017-Sep-16 04:00N 32°46' W 117°14'0 0.1
2017-Sep-16 03:08N 32°46' W 117°14'0 0.0
2017-Sep-16 02:56N 32°46' W 117°14'0 0.0
2017-Sep-16 02:30N 32°46' W 117°14'3 6.4
2017-Sep-16 02:00N 32°45' W 117°18'4 7.8
2017-Sep-16 01:30N 32°42' W 117°21'4 7.9
2017-Sep-16 01:00N 32°39' W 117°24'4 7.8
2017-Sep-16 00:30N 32°36' W 117°28'4 7.8
2017-Sep-16 00:00N 32°33' W 117°30'4 8.1
2017-Sep-15 23:30N 32°30' W 117°33'3 5.6
2017-Sep-15 23:00N 32°28' W 117°36'3 6.0
2017-Sep-15 22:30N 32°30' W 117°39'1 1.6
2017-Sep-15 22:00N 32°29' W 117°39'0 0.7
2017-Sep-15 21:31N 32°29' W 117°38'0 0.5
2017-Sep-15 21:00N 32°29' W 117°39'0 0.6
2017-Sep-15 20:30N 32°29' W 117°39'0 0.7
2017-Sep-15 20:00N 32°29' W 117°39'2 4.8
2017-Sep-15 19:30N 32°27' W 117°40'3 6.1
2017-Sep-15 19:00N 32°25' W 117°37'4 8.2
2017-Sep-15 18:30N 32°22' W 117°33'9 2.2
2017-Sep-15 14:33N 32°13' W 117°34'0 7.7
2017-Sep-15 14:29N 32°13' W 117°34'3 6.6
2017-Sep-15 14:00N 32°15' W 117°38'2 3.5
2017-Sep-15 13:26N 32°16' W 117°38'3 6.6
2017-Sep-15 12:59N 32°14' W 117°36'3 2.9
2017-Sep-15 11:51N 32°11' W 117°34'2 2.7
2017-Sep-15 11:03N 32°13' W 117°36'1 6.5
2017-Sep-15 10:58N 32°13' W 117°36'4 6.2
2017-Sep-15 10:17N 32°18' W 117°37'2 6.2
2017-Sep-15 10:00N 32°19' W 117°37'3 6.3
2017-Sep-15 09:31N 32°22' W 117°37'3 6.4
2017-Sep-15 09:00N 32°26' W 117°36'3 6.7
2017-Sep-15 08:30N 32°29' W 117°35'3 6.3
2017-Sep-15 08:01N 32°31' W 117°32'3 6.5
2017-Sep-15 07:31N 32°33' W 117°29'3 6.3
2017-Sep-15 07:01N 32°36' W 117°27'3 6.4
2017-Sep-15 06:31N 32°38' W 117°24'3 6.8
2017-Sep-15 06:00N 32°41' W 117°22'3 7.0
2017-Sep-15 05:31N 32°43' W 117°19'3 6.1
2017-Sep-15 05:01N 32°45' W 117°16'2 3.4
2017-Sep-15 04:29N 32°46' W 117°14'0 0.0
2017-Sep-15 03:47N 32°46' W 117°14'0 0.1
2017-Sep-15 03:30N 32°46' W 117°14'0 0.0
2017-Sep-15 03:00N 32°46' W 117°14'1 2.3
2017-Sep-15 02:30N 32°45' W 117°16'4 8.3
2017-Sep-15 02:00N 32°43' W 117°20'4 8.5
2017-Sep-15 01:30N 32°40' W 117°24'4 8.8
2017-Sep-15 01:00N 32°37' W 117°27'4 8.9
2017-Sep-15 00:30N 32°34' W 117°31'5 9.2
2017-Sep-15 00:00N 32°31' W 117°35'4 7.6
2017-Sep-14 23:30N 32°28' W 117°38'3 6.7
2017-Sep-14 23:00N 32°25' W 117°39'0 0.8
2017-Sep-14 22:30N 32°24' W 117°39'4 7.2
2017-Sep-14 22:00N 32°27' W 117°43'4 7.8
2017-Sep-14 21:31N 32°28' W 117°38'3 6.6
2017-Sep-14 21:00N 32°25' W 117°35'2 4.1
2017-Sep-14 20:29N 32°26' W 117°38'0 0.6
2017-Sep-14 20:00N 32°26' W 117°38'0 0.7
2017-Sep-14 19:30N 32°26' W 117°39'3 5.9
2017-Sep-14 19:00N 32°23' W 117°40'3 5.6
2017-Sep-14 18:30N 32°22' W 117°38'3 6.7
2017-Sep-14 18:00N 32°19' W 117°35'11 1.1
2017-Sep-14 08:03N 32°27' W 117°25'1 6.9
2017-Sep-14 07:58N 32°27' W 117°25'3 7.1
2017-Sep-14 07:30N 32°30' W 117°24'4 7.3
2017-Sep-14 07:00N 32°34' W 117°22'4 7.5
2017-Sep-14 06:30N 32°37' W 117°21'4 7.8
2017-Sep-14 06:00N 32°41' W 117°19'4 7.7
2017-Sep-14 05:30N 32°45' W 117°18'3 5.5
2017-Sep-14 04:58N 32°46' W 117°14'0 0.0
2017-Sep-14 04:28N 32°46' W 117°14'0 0.1
2017-Sep-14 03:59N 32°46' W 117°14'0 0.2
2017-Sep-14 03:24N 32°46' W 117°14'1 2.1
2017-Sep-14 03:00N 32°45' W 117°15'5 9.3
2017-Sep-14 02:27N 32°41' W 117°18'4 9.2
2017-Sep-14 01:59N 32°37' W 117°20'4 8.6
2017-Sep-14 01:30N 32°33' W 117°22'4 8.5
2017-Sep-14 00:59N 32°29' W 117°24'12 1.7
2017-Sep-13 17:51N 32°18' W 117°30'1 0.4
2017-Sep-13 13:54N 32°18' W 117°29'3 5.9
2017-Sep-13 13:29N 32°19' W 117°32'1 0.5
2017-Sep-13 12:20N 32°18' W 117°32'3 1.7
2017-Sep-13 10:27N 32°15' W 117°30'3 6.6
2017-Sep-13 10:00N 32°15' W 117°34'3 6.1
2017-Sep-13 09:29N 32°18' W 117°35'5 7.3
2017-Sep-13 08:51N 32°22' W 117°32'3 7.7
2017-Sep-13 08:30N 32°24' W 117°31'4 7.8
2017-Sep-13 08:00N 32°28' W 117°29'4 7.7
2017-Sep-13 07:30N 32°31' W 117°26'4 7.9
2017-Sep-13 07:00N 32°35' W 117°24'4 8.0
2017-Sep-13 06:30N 32°38' W 117°22'4 8.2
2017-Sep-13 06:00N 32°42' W 117°21'4 7.6
2017-Sep-13 05:30N 32°45' W 117°18'3 5.8
2017-Sep-13 04:58N 32°46' W 117°14'0 0.0
2017-Sep-13 04:28N 32°46' W 117°14'0 0.0
2017-Sep-13 03:58N 32°46' W 117°14'0 0.0
2017-Sep-13 03:28N 32°46' W 117°14'0 0.2
2017-Sep-13 02:55N 32°46' W 117°14'0 0.2
2017-Sep-13 02:26N 32°46' W 117°14'0 0.0
2017-Sep-13 01:59N 32°46' W 117°14'0 0.0
2017-Sep-13 01:29N 32°46' W 117°14'0 0.0
2017-Sep-13 00:59N 32°46' W 117°14'0 0.0
2017-Sep-13 00:23N 32°46' W 117°14'0 0.0
2017-Sep-12 23:59N 32°46' W 117°14'0 0.0
2017-Sep-12 23:29N 32°46' W 117°14'0 0.0
2017-Sep-12 22:59N 32°46' W 117°14'0 0.0
2017-Sep-12 22:29N 32°46' W 117°14'0 0.0
2017-Sep-12 21:59N 32°46' W 117°14'0 0.0
2017-Sep-12 21:29N 32°46' W 117°14'0 0.0
2017-Sep-12 20:59N 32°46' W 117°14'0 0.0
2017-Sep-12 20:17N 32°46' W 117°14'0 0.0
2017-Sep-12 19:59N 32°46' W 117°14'0 0.0
2017-Sep-12 19:29N 32°46' W 117°14'0 0.0
2017-Sep-12 18:59N 32°46' W 117°14'0 0.0
2017-Sep-12 18:26N 32°46' W 117°14'0 0.0
2017-Sep-12 17:53N 32°46' W 117°14'0 0.0
2017-Sep-12 17:29N 32°46' W 117°14'0 0.0
2017-Sep-12 16:59N 32°46' W 117°14'0 0.0
2017-Sep-12 16:29N 32°46' W 117°14'0 0.0
2017-Sep-12 15:53N 32°46' W 117°14'0 0.0
2017-Sep-12 15:23N 32°46' W 117°14'0 0.0
2017-Sep-12 14:59N 32°46' W 117°14'0 0.0
2017-Sep-12 13:23N 32°46' W 117°14'0 0.0
2017-Sep-12 12:59N 32°46' W 117°14'0 0.0
2017-Sep-12 12:29N 32°46' W 117°14'0 0.0
2017-Sep-12 11:59N 32°46' W 117°14'0 0.0
2017-Sep-12 11:29N 32°46' W 117°14'0 0.0
2017-Sep-12 10:59N 32°46' W 117°14'0 0.0
2017-Sep-12 10:23N 32°46' W 117°14'0 0.0
2017-Sep-12 09:59N 32°46' W 117°14'0 0.0
2017-Sep-12 09:29N 32°46' W 117°14'0 0.0
2017-Sep-12 08:59N 32°46' W 117°14'0 0.0
2017-Sep-12 08:17N 32°46' W 117°14'0 0.0
2017-Sep-12 07:59N 32°46' W 117°14'0 0.0
2017-Sep-12 07:23N 32°46' W 117°14'0 0.0
2017-Sep-12 06:53N 32°46' W 117°14'0 0.0
2017-Sep-12 06:29N 32°46' W 117°14'0 0.0
2017-Sep-12 05:59N 32°46' W 117°14'0 0.0
2017-Sep-12 05:29N 32°46' W 117°14'0 0.0
2017-Sep-12 04:59N 32°46' W 117°14'0 0.0
2017-Sep-12 04:21N 32°46' W 117°14'0 0.0
2017-Sep-12 03:51N 32°46' W 117°14'0 1.1
2017-Sep-12 03:30N 32°46' W 117°15'4 7.7
2017-Sep-12 03:00N 32°43' W 117°18'4 8.2
2017-Sep-12 02:30N 32°39' W 117°19'4 8.5
2017-Sep-12 02:00N 32°35' W 117°22'4 8.7
2017-Sep-12 01:30N 32°31' W 117°24'4 8.5
2017-Sep-12 01:00N 32°27' W 117°26'7 8.9
2017-Sep-12 00:15N 32°21' W 117°29'2 8.8
2017-Sep-12 00:00N 32°19' W 117°30'5 8.7
2017-Sep-11 23:26N 32°14' W 117°32'3 7.0
2017-Sep-11 23:00N 32°12' W 117°33'1 1.6
2017-Sep-11 22:24N 32°12' W 117°34'1 2.7
2017-Sep-11 22:00N 32°11' W 117°34'3 6.8
2017-Sep-11 21:29N 32°08' W 117°34'4 7.5
2017-Sep-11 20:58N 32°06' W 117°30'23 2.6
2017-Sep-11 12:13N 31°45' W 117°18'3 8.0
2017-Sep-11 11:53N 31°48' W 117°18'16 7.9
2017-Sep-11 09:49N 32°04' W 117°18'3 8.3
2017-Sep-11 09:31N 32°07' W 117°19'4 8.7
2017-Sep-11 09:01N 32°11' W 117°18'4 8.9
2017-Sep-11 08:31N 32°15' W 117°18'5 9.0
2017-Sep-11 08:00N 32°20' W 117°19'5 9.6
2017-Sep-11 07:30N 32°25' W 117°19'5 9.9
2017-Sep-11 07:00N 32°30' W 117°19'510.0
2017-Sep-11 06:31N 32°35' W 117°19'510.1
2017-Sep-11 06:01N 32°40' W 117°18'5 9.7
2017-Sep-11 05:31N 32°44' W 117°17'3 5.9
2017-Sep-11 05:00N 32°46' W 117°14'0 0.0
2017-Sep-11 04:13N 32°46' W 117°14'0 0.4
2017-Sep-11 03:59N 32°46' W 117°14'0 0.3
2017-Sep-11 03:29N 32°46' W 117°14'0 0.4
2017-Sep-11 03:01N 32°46' W 117°14'4 8.5
2017-Sep-11 02:31N 32°43' W 117°18'5 9.0
2017-Sep-11 02:01N 32°38' W 117°19'5 9.3
2017-Sep-11 01:30N 32°34' W 117°20'5 9.5
2017-Sep-11 01:01N 32°29' W 117°21'5 9.4
2017-Sep-11 00:30N 32°24' W 117°23'5 9.8
2017-Sep-11 00:00N 32°20' W 117°24'5 9.7
2017-Sep-10 23:30N 32°15' W 117°26'7 9.3
2017-Sep-10 22:43N 32°08' W 117°29'17 7.7
2017-Sep-10 20:32N 31°51' W 117°31'0 1.8
2017-Sep-10 20:25N 31°51' W 117°31'16 1.4
2017-Sep-10 09:19N 32°04' W 117°19'6 8.4
2017-Sep-10 08:40N 32°09' W 117°20'1 8.8
2017-Sep-10 08:30N 32°10' W 117°20'5 9.5
2017-Sep-10 08:01N 32°15' W 117°20'510.4
2017-Sep-10 07:31N 32°20' W 117°20'510.5
2017-Sep-10 07:00N 32°26' W 117°19'510.6
2017-Sep-10 06:30N 32°31' W 117°19'510.3
2017-Sep-10 06:00N 32°36' W 117°19'510.4
2017-Sep-10 05:30N 32°41' W 117°18'4 8.8
2017-Sep-10 05:00N 32°45' W 117°16'2 3.3
2017-Sep-10 04:28N 32°46' W 117°14'0 0.0
2017-Sep-10 03:55N 32°46' W 117°14'0 0.2
2017-Sep-10 03:30N 32°46' W 117°14'0 0.2
2017-Sep-10 02:55N 32°46' W 117°14'2 3.8
2017-Sep-10 02:30N 32°45' W 117°16'5 9.4
2017-Sep-10 02:00N 32°40' W 117°16'5 8.7
2017-Sep-10 01:29N 32°36' W 117°16'4 8.6
2017-Sep-10 01:01N 32°32' W 117°16'4 8.6
2017-Sep-10 00:30N 32°28' W 117°16'4 8.7
2017-Sep-10 00:00N 32°23' W 117°16'4 9.0
2017-Sep-09 23:31N 32°19' W 117°16'16 1.3
2017-Sep-09 10:30N 32°02' W 117°18'8 8.4
2017-Sep-09 09:35N 32°10' W 117°19'1 8.6
2017-Sep-09 09:30N 32°11' W 117°19'7 8.5
2017-Sep-09 08:42N 32°17' W 117°19'2 8.7
2017-Sep-09 08:28N 32°19' W 117°19'4 8.8
2017-Sep-09 07:59N 32°24' W 117°19'5 9.2
2017-Sep-09 07:30N 32°28' W 117°19'5 9.6
2017-Sep-09 07:00N 32°33' W 117°19'5 9.8
2017-Sep-09 06:30N 32°38' W 117°19'5 9.8
2017-Sep-09 06:00N 32°43' W 117°19'3 7.0
2017-Sep-09 05:31N 32°45' W 117°16'2 2.3
2017-Sep-09 04:51N 32°46' W 117°14'0 0.3
2017-Sep-09 04:31N 32°46' W 117°14'0 0.3
2017-Sep-09 04:00N 32°46' W 117°14'1 1.3
2017-Sep-09 03:30N 32°46' W 117°15'5 9.4
2017-Sep-09 03:00N 32°45' W 117°20'5 9.4
2017-Sep-09 02:30N 32°44' W 117°26'510.0
2017-Sep-09 02:00N 32°44' W 117°32'5 9.7
2017-Sep-09 01:30N 32°44' W 117°38'5 9.7
2017-Sep-09 01:00N 32°44' W 117°43'5 9.7
2017-Sep-09 00:30N 32°44' W 117°49'5 9.6
2017-Sep-09 00:00N 32°43' W 117°55'5 9.6
2017-Sep-08 23:30N 32°43' W 118°01'5 9.8
2017-Sep-08 23:00N 32°43' W 118°06'5 9.7
2017-Sep-08 22:30N 32°42' W 118°12'5 9.8
2017-Sep-08 21:59N 32°42' W 118°18'4 9.2
2017-Sep-08 21:30N 32°41' W 118°23'4 9.0
2017-Sep-08 21:00N 32°40' W 118°29'1 1.8
2017-Sep-08 20:30N 32°41' W 118°30'1 1.3
2017-Sep-08 20:00N 32°41' W 118°30'1 1.2
2017-Sep-08 19:30N 32°42' W 118°30'1 1.2
2017-Sep-08 19:00N 32°42' W 118°31'1 1.8
2017-Sep-08 18:30N 32°42' W 118°32'1 2.4
2017-Sep-08 18:00N 32°41' W 118°33'2 4.8
2017-Sep-08 17:30N 32°39' W 118°34'1 3.1
2017-Sep-08 17:00N 32°40' W 118°32'2 3.6
2017-Sep-08 16:30N 32°40' W 118°30'3 5.4
2017-Sep-08 16:00N 32°41' W 118°34'1 2.5
2017-Sep-08 15:30N 32°40' W 118°32'1 2.3
2017-Sep-08 15:00N 32°40' W 118°31'2 3.2
2017-Sep-08 14:30N 32°41' W 118°30'3 5.1
2017-Sep-08 14:00N 32°40' W 118°27'2 4.6
2017-Sep-08 13:30N 32°39' W 118°24'  
Track history (hours):
 
Tides and Currents Weather Stations Pressure Air Temp Water Temp Dewpoint Dewpoint Depression Visibility Wind Speed Wind Dir Waves Ship Positions

Holiday

Owner: VOAKLANDER, TIM J, CARDIFF, CA. More information available from US FCC via Universal Licensing System and Coast Guard Vessel Documentation Center.

Last reported at 2017-Sep-18 13:04 UTC. Time now 2017-Sep-21 05:27 UTC.
Position N 32°35' W 117°36'.

Length 24 m.

Type: Wing in ground effect craft. MMSI: 367452560.

Date/timePositionNaut miles runAvg speedWind from/ knotsBaromVisibWave heightAir tempDewpointWater temp
2017-Sep-18 13:04N 32°35' W 117°36'0 0.6
2017-Sep-18 12:58N 32°35' W 117°36'0 0.5
2017-Sep-18 12:29N 32°35' W 117°36'0 0.4
2017-Sep-18 11:59N 32°35' W 117°37'0 0.4
2017-Sep-18 11:29N 32°34' W 117°37'1 2.1
2017-Sep-18 11:00N 32°34' W 117°36'0 0.7
2017-Sep-18 10:30N 32°35' W 117°35'1 1.9
2017-Sep-18 10:00N 32°35' W 117°36'2 4.2
2017-Sep-18 09:30N 32°36' W 117°35'2 4.2
2017-Sep-18 09:00N 32°37' W 117°32'2 4.2
2017-Sep-18 08:30N 32°38' W 117°30'2 4.4
2017-Sep-18 08:00N 32°39' W 117°28'2 4.4
2017-Sep-18 07:30N 32°40' W 117°26'2 4.5
2017-Sep-18 07:00N 32°41' W 117°23'2 4.6
2017-Sep-18 06:30N 32°42' W 117°21'2 4.6
2017-Sep-18 06:00N 32°44' W 117°18'3 5.9
2017-Sep-18 05:30N 32°45' W 117°16'1 2.2
2017-Sep-18 04:55N 32°46' W 117°14'0 0.0
2017-Sep-18 04:25N 32°46' W 117°14'0 0.0
2017-Sep-18 04:01N 32°46' W 117°14'0 0.0
2017-Sep-18 03:26N 32°46' W 117°14'1 2.7
2017-Sep-18 03:00N 32°45' W 117°16'4 8.7
2017-Sep-18 02:30N 32°42' W 117°18'4 8.9
2017-Sep-18 02:01N 32°38' W 117°22'5 9.2
2017-Sep-18 01:31N 32°35' W 117°25'5 9.6
2017-Sep-18 01:00N 32°31' W 117°28'5 9.5
2017-Sep-18 00:30N 32°27' W 117°31'4 7.6
2017-Sep-18 00:00N 32°23' W 117°33'3 7.1
2017-Sep-17 23:30N 32°21' W 117°30'4 0.9
2017-Sep-17 18:57N 32°17' W 117°28'2 4.6
2017-Sep-17 18:27N 32°18' W 117°30'3 6.9
2017-Sep-17 18:00N 32°21' W 117°32'3 5.6
2017-Sep-17 17:29N 32°24' W 117°32'3 6.7
2017-Sep-17 17:00N 32°27' W 117°32'2 4.2
2017-Sep-17 16:25N 32°30' W 117°32'0 0.7
2017-Sep-17 16:00N 32°30' W 117°32'2 4.9
2017-Sep-17 15:30N 32°31' W 117°34'3 5.1
2017-Sep-17 15:00N 32°32' W 117°37'2 3.1
2017-Sep-17 14:30N 32°33' W 117°39'3 5.3
2017-Sep-17 14:00N 32°36' W 117°39'2 3.8
2017-Sep-17 13:30N 32°35' W 117°36'3 5.8
2017-Sep-17 13:00N 32°36' W 117°40'2 4.9
2017-Sep-17 12:30N 32°35' W 117°43'2 3.1
2017-Sep-17 12:00N 32°34' W 117°42'1 1.5
2017-Sep-17 11:30N 32°34' W 117°41'2 3.2
2017-Sep-17 11:00N 32°35' W 117°40'2 3.8
2017-Sep-17 10:30N 32°36' W 117°38'2 3.7
2017-Sep-17 10:00N 32°37' W 117°36'2 3.6
2017-Sep-17 09:30N 32°38' W 117°34'2 3.8
2017-Sep-17 09:00N 32°39' W 117°32'2 4.0
2017-Sep-17 08:30N 32°40' W 117°30'2 4.2
2017-Sep-17 08:00N 32°40' W 117°27'2 4.4
2017-Sep-17 07:30N 32°41' W 117°25'2 4.4
2017-Sep-17 07:00N 32°42' W 117°23'2 4.6
2017-Sep-17 06:30N 32°43' W 117°20'3 5.1
2017-Sep-17 06:00N 32°45' W 117°18'3 6.0
2017-Sep-17 05:30N 32°46' W 117°15'0 0.1
2017-Sep-17 03:45N 32°46' W 117°14'0 0.2
2017-Sep-17 03:29N 32°46' W 117°14'0 0.1
2017-Sep-17 02:59N 32°46' W 117°14'3 5.9
2017-Sep-17 02:31N 32°45' W 117°17'4 8.0
2017-Sep-17 02:01N 32°43' W 117°21'4 8.2
2017-Sep-17 01:30N 32°41' W 117°26'4 8.5
2017-Sep-17 01:00N 32°39' W 117°30'4 8.4
2017-Sep-17 00:30N 32°37' W 117°34'4 8.0
2017-Sep-17 00:01N 32°34' W 117°38'2 4.8
2017-Sep-16 23:30N 32°32' W 117°37'4 7.2
2017-Sep-16 23:00N 32°35' W 117°36'1 1.6
2017-Sep-16 22:30N 32°35' W 117°35'1 3.0
2017-Sep-16 22:00N 32°34' W 117°34'3 6.9
2017-Sep-16 21:30N 32°35' W 117°38'3 6.3
2017-Sep-16 21:00N 32°35' W 117°41'3 5.2
2017-Sep-16 20:30N 32°34' W 117°39'2 4.8
2017-Sep-16 20:00N 32°33' W 117°36'3 6.9
2017-Sep-16 19:30N 32°30' W 117°34'4 8.1
2017-Sep-16 19:00N 32°26' W 117°33'2 3.2
2017-Sep-16 18:30N 32°27' W 117°35'4 7.6
2017-Sep-16 18:00N 32°28' W 117°39'4 7.7
2017-Sep-16 17:30N 32°32' W 117°38'4 7.8
2017-Sep-16 17:00N 32°34' W 117°34'3 6.0
2017-Sep-16 16:30N 32°36' W 117°37'2 3.7
2017-Sep-16 16:00N 32°34' W 117°36'3 6.9
2017-Sep-16 15:30N 32°31' W 117°35'3 5.1
2017-Sep-16 15:00N 32°31' W 117°38'3 6.2
2017-Sep-16 14:30N 32°29' W 117°41'3 5.3
2017-Sep-16 14:00N 32°28' W 117°38'2 4.4
2017-Sep-16 13:30N 32°30' W 117°39'1 2.3
2017-Sep-16 13:00N 32°31' W 117°39'0 0.8
2017-Sep-16 12:29N 32°30' W 117°39'0 0.3
2017-Sep-16 12:01N 32°30' W 117°40'2 3.8
2017-Sep-16 11:31N 32°31' W 117°38'2 4.3
2017-Sep-16 11:00N 32°30' W 117°40'1 1.2
2017-Sep-16 10:30N 32°30' W 117°39'2 4.2
2017-Sep-16 10:00N 32°32' W 117°37'2 4.2
2017-Sep-16 09:30N 32°33' W 117°35'2 4.0
2017-Sep-16 09:01N 32°34' W 117°34'2 4.0
2017-Sep-16 08:30N 32°35' W 117°32'2 4.0
2017-Sep-16 08:00N 32°37' W 117°30'2 4.3
2017-Sep-16 07:30N 32°38' W 117°28'2 4.4
2017-Sep-16 07:00N 32°39' W 117°26'2 4.9
2017-Sep-16 06:30N 32°41' W 117°24'3 5.8
2017-Sep-16 06:01N 32°43' W 117°21'3 6.8
2017-Sep-16 05:31N 32°45' W 117°18'3 5.4
2017-Sep-16 04:56N 32°46' W 117°14'0 0.0
2017-Sep-16 04:12N 32°46' W 117°14'0 0.5
2017-Sep-16 04:00N 32°46' W 117°14'0 0.1
2017-Sep-16 03:08N 32°46' W 117°14'0 0.0
2017-Sep-16 02:56N 32°46' W 117°14'0 0.0
2017-Sep-16 02:30N 32°46' W 117°14'3 6.4
2017-Sep-16 02:00N 32°45' W 117°18'4 7.8
2017-Sep-16 01:30N 32°42' W 117°21'4 7.9
2017-Sep-16 01:00N 32°39' W 117°24'4 7.8
2017-Sep-16 00:30N 32°36' W 117°28'4 7.8
2017-Sep-16 00:00N 32°33' W 117°30'4 8.1
2017-Sep-15 23:30N 32°30' W 117°33'3 5.6
2017-Sep-15 23:00N 32°28' W 117°36'3 6.0
2017-Sep-15 22:30N 32°30' W 117°39'1 1.6
2017-Sep-15 22:00N 32°29' W 117°39'0 0.7
2017-Sep-15 21:31N 32°29' W 117°38'0 0.5
2017-Sep-15 21:00N 32°29' W 117°39'0 0.6
2017-Sep-15 20:30N 32°29' W 117°39'0 0.7
2017-Sep-15 20:00N 32°29' W 117°39'2 4.8
2017-Sep-15 19:30N 32°27' W 117°40'3 6.1
2017-Sep-15 19:00N 32°25' W 117°37'4 8.2
2017-Sep-15 18:30N 32°22' W 117°33'9 2.2
2017-Sep-15 14:33N 32°13' W 117°34'0 7.7
2017-Sep-15 14:29N 32°13' W 117°34'3 6.6
2017-Sep-15 14:00N 32°15' W 117°38'2 3.5
2017-Sep-15 13:26N 32°16' W 117°38'3 6.6
2017-Sep-15 12:59N 32°14' W 117°36'3 2.9
2017-Sep-15 11:51N 32°11' W 117°34'2 2.7
2017-Sep-15 11:03N 32°13' W 117°36'1 6.5
2017-Sep-15 10:58N 32°13' W 117°36'4 6.2
2017-Sep-15 10:17N 32°18' W 117°37'2 6.2
2017-Sep-15 10:00N 32°19' W 117°37'3 6.3
2017-Sep-15 09:31N 32°22' W 117°37'3 6.4
2017-Sep-15 09:00N 32°26' W 117°36'3 6.7
2017-Sep-15 08:30N 32°29' W 117°35'3 6.3
2017-Sep-15 08:01N 32°31' W 117°32'3 6.5
2017-Sep-15 07:31N 32°33' W 117°29'3 6.3
2017-Sep-15 07:01N 32°36' W 117°27'3 6.4
2017-Sep-15 06:31N 32°38' W 117°24'3 6.8
2017-Sep-15 06:00N 32°41' W 117°22'3 7.0
2017-Sep-15 05:31N 32°43' W 117°19'3 6.1
2017-Sep-15 05:01N 32°45' W 117°16'2 3.4
2017-Sep-15 04:29N 32°46' W 117°14'0 0.0
2017-Sep-15 03:47N 32°46' W 117°14'0 0.1
2017-Sep-15 03:30N 32°46' W 117°14'0 0.0
2017-Sep-15 03:00N 32°46' W 117°14'1 2.3
2017-Sep-15 02:30N 32°45' W 117°16'4 8.3
2017-Sep-15 02:00N 32°43' W 117°20'4 8.5
2017-Sep-15 01:30N 32°40' W 117°24'4 8.8
2017-Sep-15 01:00N 32°37' W 117°27'4 8.9
2017-Sep-15 00:30N 32°34' W 117°31'5 9.2
2017-Sep-15 00:00N 32°31' W 117°35'4 7.6
2017-Sep-14 23:30N 32°28' W 117°38'3 6.7
2017-Sep-14 23:00N 32°25' W 117°39'0 0.8
2017-Sep-14 22:30N 32°24' W 117°39'4 7.2
2017-Sep-14 22:00N 32°27' W 117°43'4 7.8
2017-Sep-14 21:31N 32°28' W 117°38'3 6.6
2017-Sep-14 21:00N 32°25' W 117°35'2 4.1
2017-Sep-14 20:29N 32°26' W 117°38'0 0.6
2017-Sep-14 20:00N 32°26' W 117°38'0 0.7
2017-Sep-14 19:30N 32°26' W 117°39'3 5.9
2017-Sep-14 19:00N 32°23' W 117°40'3 5.6
2017-Sep-14 18:30N 32°22' W 117°38'3 6.7
2017-Sep-14 18:00N 32°19' W 117°35'11 1.1
2017-Sep-14 08:03N 32°27' W 117°25'1 6.9
2017-Sep-14 07:58N 32°27' W 117°25'3 7.1
2017-Sep-14 07:30N 32°30' W 117°24'4 7.3
2017-Sep-14 07:00N 32°34' W 117°22'4 7.5
2017-Sep-14 06:30N 32°37' W 117°21'4 7.8
2017-Sep-14 06:00N 32°41' W 117°19'4 7.7
2017-Sep-14 05:30N 32°45' W 117°18'3 5.5
2017-Sep-14 04:58N 32°46' W 117°14'0 0.0
2017-Sep-14 04:28N 32°46' W 117°14'0 0.1
2017-Sep-14 03:59N 32°46' W 117°14'0 0.2
2017-Sep-14 03:24N 32°46' W 117°14'1 2.1
2017-Sep-14 03:00N 32°45' W 117°15'5 9.3
2017-Sep-14 02:27N 32°41' W 117°18'4 9.2
2017-Sep-14 01:59N 32°37' W 117°20'4 8.6
2017-Sep-14 01:30N 32°33' W 117°22'4 8.5
2017-Sep-14 00:59N 32°29' W 117°24'12 1.7
2017-Sep-13 17:51N 32°18' W 117°30'1 0.4
2017-Sep-13 13:54N 32°18' W 117°29'3 5.9
2017-Sep-13 13:29N 32°19' W 117°32'1 0.5
2017-Sep-13 12:20N 32°18' W 117°32'3 1.7
2017-Sep-13 10:27N 32°15' W 117°30'3 6.6
2017-Sep-13 10:00N 32°15' W 117°34'3 6.1
2017-Sep-13 09:29N 32°18' W 117°35'5 7.3
2017-Sep-13 08:51N 32°22' W 117°32'3 7.7
2017-Sep-13 08:30N 32°24' W 117°31'4 7.8
2017-Sep-13 08:00N 32°28' W 117°29'4 7.7
2017-Sep-13 07:30N 32°31' W 117°26'4 7.9
2017-Sep-13 07:00N 32°35' W 117°24'4 8.0
2017-Sep-13 06:30N 32°38' W 117°22'4 8.2
2017-Sep-13 06:00N 32°42' W 117°21'4 7.6
2017-Sep-13 05:30N 32°45' W 117°18'3 5.8
2017-Sep-13 04:58N 32°46' W 117°14'0 0.0
2017-Sep-13 04:28N 32°46' W 117°14'0 0.0
2017-Sep-13 03:58N 32°46' W 117°14'0 0.0
2017-Sep-13 03:28N 32°46' W 117°14'0 0.2
2017-Sep-13 02:55N 32°46' W 117°14'0 0.2
2017-Sep-13 02:26N 32°46' W 117°14'0 0.0
2017-Sep-13 01:59N 32°46' W 117°14'0 0.0
2017-Sep-13 01:29N 32°46' W 117°14'0 0.0
2017-Sep-13 00:59N 32°46' W 117°14'0 0.0
2017-Sep-13 00:23N 32°46' W 117°14'0 0.0
2017-Sep-12 23:59N 32°46' W 117°14'0 0.0
2017-Sep-12 23:29N 32°46' W 117°14'0 0.0
2017-Sep-12 22:59N 32°46' W 117°14'0 0.0
2017-Sep-12 22:29N 32°46' W 117°14'0 0.0
2017-Sep-12 21:59N 32°46' W 117°14'0 0.0
2017-Sep-12 21:29N 32°46' W 117°14'0 0.0
2017-Sep-12 20:59N 32°46' W 117°14'0 0.0
2017-Sep-12 20:17N 32°46' W 117°14'0 0.0
2017-Sep-12 19:59N 32°46' W 117°14'0 0.0
2017-Sep-12 19:29N 32°46' W 117°14'0 0.0
2017-Sep-12 18:59N 32°46' W 117°14'0 0.0
2017-Sep-12 18:26N 32°46' W 117°14'0 0.0
2017-Sep-12 17:53N 32°46' W 117°14'0 0.0
2017-Sep-12 17:29N 32°46' W 117°14'0 0.0
2017-Sep-12 16:59N 32°46' W 117°14'0 0.0
2017-Sep-12 16:29N 32°46' W 117°14'0 0.0
2017-Sep-12 15:53N 32°46' W 117°14'0 0.0
2017-Sep-12 15:23N 32°46' W 117°14'0 0.0
2017-Sep-12 14:59N 32°46' W 117°14'0 0.0
2017-Sep-12 13:23N 32°46' W 117°14'0 0.0
2017-Sep-12 12:59N 32°46' W 117°14'0 0.0
2017-Sep-12 12:29N 32°46' W 117°14'0 0.0
2017-Sep-12 11:59N 32°46' W 117°14'0 0.0
2017-Sep-12 11:29N 32°46' W 117°14'0 0.0
2017-Sep-12 10:59N 32°46' W 117°14'0 0.0
2017-Sep-12 10:23N 32°46' W 117°14'0 0.0
2017-Sep-12 09:59N 32°46' W 117°14'0 0.0
2017-Sep-12 09:29N 32°46' W 117°14'0 0.0
2017-Sep-12 08:59N 32°46' W 117°14'0 0.0
2017-Sep-12 08:17N 32°46' W 117°14'0 0.0
2017-Sep-12 07:59N 32°46' W 117°14'0 0.0
2017-Sep-12 07:23N 32°46' W 117°14'0 0.0
2017-Sep-12 06:53N 32°46' W 117°14'0 0.0
2017-Sep-12 06:29N 32°46' W 117°14'0 0.0
2017-Sep-12 05:59N 32°46' W 117°14'0 0.0
2017-Sep-12 05:29N 32°46' W 117°14'0 0.0
2017-Sep-12 04:59N 32°46' W 117°14'0 0.0
2017-Sep-12 04:21N 32°46' W 117°14'0 0.0
2017-Sep-12 03:51N 32°46' W 117°14'0 1.1
2017-Sep-12 03:30N 32°46' W 117°15'4 7.7
2017-Sep-12 03:00N 32°43' W 117°18'4 8.2
2017-Sep-12 02:30N 32°39' W 117°19'4 8.5
2017-Sep-12 02:00N 32°35' W 117°22'4 8.7
2017-Sep-12 01:30N 32°31' W 117°24'4 8.5
2017-Sep-12 01:00N 32°27' W 117°26'7 8.9
2017-Sep-12 00:15N 32°21' W 117°29'2 8.8
2017-Sep-12 00:00N 32°19' W 117°30'5 8.7
2017-Sep-11 23:26N 32°14' W 117°32'3 7.0
2017-Sep-11 23:00N 32°12' W 117°33'1 1.6
2017-Sep-11 22:24N 32°12' W 117°34'1 2.7
2017-Sep-11 22:00N 32°11' W 117°34'3 6.8
2017-Sep-11 21:29N 32°08' W 117°34'4 7.5
2017-Sep-11 20:58N 32°06' W 117°30'23 2.6
2017-Sep-11 12:13N 31°45' W 117°18'3 8.0
2017-Sep-11 11:53N 31°48' W 117°18'16 7.9
2017-Sep-11 09:49N 32°04' W 117°18'3 8.3
2017-Sep-11 09:31N 32°07' W 117°19'4 8.7
2017-Sep-11 09:01N 32°11' W 117°18'4 8.9
2017-Sep-11 08:31N 32°15' W 117°18'5 9.0
2017-Sep-11 08:00N 32°20' W 117°19'5 9.6
2017-Sep-11 07:30N 32°25' W 117°19'5 9.9
2017-Sep-11 07:00N 32°30' W 117°19'510.0
2017-Sep-11 06:31N 32°35' W 117°19'510.1
2017-Sep-11 06:01N 32°40' W 117°18'5 9.7
2017-Sep-11 05:31N 32°44' W 117°17'3 5.9
2017-Sep-11 05:00N 32°46' W 117°14'0 0.0
2017-Sep-11 04:13N 32°46' W 117°14'0 0.4
2017-Sep-11 03:59N 32°46' W 117°14'0 0.3
2017-Sep-11 03:29N 32°46' W 117°14'0 0.4
2017-Sep-11 03:01N 32°46' W 117°14'4 8.5
2017-Sep-11 02:31N 32°43' W 117°18'5 9.0
2017-Sep-11 02:01N 32°38' W 117°19'5 9.3
2017-Sep-11 01:30N 32°34' W 117°20'5 9.5
2017-Sep-11 01:01N 32°29' W 117°21'5 9.4
2017-Sep-11 00:30N 32°24' W 117°23'5 9.8
2017-Sep-11 00:00N 32°20' W 117°24'5 9.7
2017-Sep-10 23:30N 32°15' W 117°26'7 9.3
2017-Sep-10 22:43N 32°08' W 117°29'17 7.7
2017-Sep-10 20:32N 31°51' W 117°31'0 1.8
2017-Sep-10 20:25N 31°51' W 117°31'16 1.4
2017-Sep-10 09:19N 32°04' W 117°19'6 8.4
2017-Sep-10 08:40N 32°09' W 117°20'1 8.8
2017-Sep-10 08:30N 32°10' W 117°20'5 9.5
2017-Sep-10 08:01N 32°15' W 117°20'510.4
2017-Sep-10 07:31N 32°20' W 117°20'510.5
2017-Sep-10 07:00N 32°26' W 117°19'510.6
2017-Sep-10 06:30N 32°31' W 117°19'510.3
2017-Sep-10 06:00N 32°36' W 117°19'510.4
2017-Sep-10 05:30N 32°41' W 117°18'4 8.8
2017-Sep-10 05:00N 32°45' W 117°16'2 3.3
2017-Sep-10 04:28N 32°46' W 117°14'0 0.0
2017-Sep-10 03:55N 32°46' W 117°14'0 0.2
2017-Sep-10 03:30N 32°46' W 117°14'0 0.2
2017-Sep-10 02:55N 32°46' W 117°14'2 3.8
2017-Sep-10 02:30N 32°45' W 117°16'5 9.4
2017-Sep-10 02:00N 32°40' W 117°16'5 8.7
2017-Sep-10 01:29N 32°36' W 117°16'4 8.6
2017-Sep-10 01:01N 32°32' W 117°16'4 8.6
2017-Sep-10 00:30N 32°28' W 117°16'4 8.7
2017-Sep-10 00:00N 32°23' W 117°16'4 9.0
2017-Sep-09 23:31N 32°19' W 117°16'16 1.3
2017-Sep-09 10:30N 32°02' W 117°18'8 8.4
2017-Sep-09 09:35N 32°10' W 117°19'1 8.6
2017-Sep-09 09:30N 32°11' W 117°19'7 8.5
2017-Sep-09 08:42N 32°17' W 117°19'2 8.7
2017-Sep-09 08:28N 32°19' W 117°19'4 8.8
2017-Sep-09 07:59N 32°24' W 117°19'5 9.2
2017-Sep-09 07:30N 32°28' W 117°19'5 9.6
2017-Sep-09 07:00N 32°33' W 117°19'5 9.8
2017-Sep-09 06:30N 32°38' W 117°19'5 9.8
2017-Sep-09 06:00N 32°43' W 117°19'3 7.0
2017-Sep-09 05:31N 32°45' W 117°16'2 2.3
2017-Sep-09 04:51N 32°46' W 117°14'0 0.3
2017-Sep-09 04:31N 32°46' W 117°14'0 0.3
2017-Sep-09 04:00N 32°46' W 117°14'1 1.3
2017-Sep-09 03:30N 32°46' W 117°15'5 9.4
2017-Sep-09 03:00N 32°45' W 117°20'5 9.4
2017-Sep-09 02:30N 32°44' W 117°26'510.0
2017-Sep-09 02:00N 32°44' W 117°32'5 9.7
2017-Sep-09 01:30N 32°44' W 117°38'5 9.7
2017-Sep-09 01:00N 32°44' W 117°43'5 9.7
2017-Sep-09 00:30N 32°44' W 117°49'5 9.6
2017-Sep-09 00:00N 32°43' W 117°55'5 9.6
2017-Sep-08 23:30N 32°43' W 118°01'5 9.8
2017-Sep-08 23:00N 32°43' W 118°06'5 9.7
2017-Sep-08 22:30N 32°42' W 118°12'5 9.8
2017-Sep-08 21:59N 32°42' W 118°18'4 9.2
2017-Sep-08 21:30N 32°41' W 118°23'4 9.0
2017-Sep-08 21:00N 32°40' W 118°29'1 1.8
2017-Sep-08 20:30N 32°41' W 118°30'1 1.3
2017-Sep-08 20:00N 32°41' W 118°30'1 1.2
2017-Sep-08 19:30N 32°42' W 118°30'1 1.2
2017-Sep-08 19:00N 32°42' W 118°31'1 1.8
2017-Sep-08 18:30N 32°42' W 118°32'1 2.4
2017-Sep-08 18:00N 32°41' W 118°33'2 4.8
2017-Sep-08 17:30N 32°39' W 118°34'1 3.1
2017-Sep-08 17:00N 32°40' W 118°32'2 3.6
2017-Sep-08 16:30N 32°40' W 118°30'3 5.4
2017-Sep-08 16:00N 32°41' W 118°34'1 2.5
2017-Sep-08 15:30N 32°40' W 118°32'1 2.3
2017-Sep-08 15:00N 32°40' W 118°31'2 3.2
2017-Sep-08 14:30N 32°41' W 118°30'3 5.1
2017-Sep-08 14:00N 32°40' W 118°27'2 4.6
2017-Sep-08 13:30N 32°39' W 118°24'  

Dump ship's entire track history